Time;durP1;ratioP1;P1;durP2;ratioP2;P2;SDS_P1;SDS_P2;PMS_P1;PMS_P2;Temp;Humidity;BMP_temperature;BMP_pressure;BME280_temperature;BME280_humidity;BME280_pressure;Samples;Min_cycle;Max_cycle;Signal;HPM_P1;HPM_P2
2023/09/03 00:01:49;;;;;;;16.27;9.40;;;;;;;16.98;83.49;99939.91;4954307;28;20456;-88
2023/09/03 00:04:15;;;;;;;16.38;9.55;;;;;;;16.98;83.49;99942.66;4982403;28;20096;-89
2023/09/03 00:06:41;;;;;;;19.08;10.30;;;;;;;16.84;83.28;99920.88;5002068;28;20043;-89
2023/09/03 00:09:07;;;;;;;18.17;10.60;;;;;;;16.97;83.56;99947.38;4999779;28;20042;-89
2023/09/03 00:11:33;;;;;;;17.58;10.00;;;;;;;16.93;83.31;99942.88;4999613;28;20483;-94
2023/09/03 00:13:59;;;;;;;15.50;9.97;;;;;;;16.85;83.53;99928.84;4968187;28;20046;-88
2023/09/03 00:16:28;;;;;;;18.08;10.23;;;;;;;16.98;83.54;99949.00;4951567;28;20030;-89
2023/09/03 00:18:54;;;;;;;15.27;10.00;;;;;;;16.76;84.13;99930.88;4987188;28;20047;-89
2023/09/03 00:21:21;;;;;;;14.45;10.15;;;;;;;16.90;84.26;99958.97;5004355;28;20042;-90
2023/09/03 00:23:50;;;;;;;16.25;10.60;;;;;;;16.82;84.53;99939.72;5004158;28;20057;-92
2023/09/03 00:26:24;;;;;;;15.50;10.00;;;;;;;17.00;84.46;99959.72;5004278;28;20129;-89
2023/09/03 00:28:56;;;;;;;14.75;9.93;;;;;;;16.64;84.36;99917.78;5000942;28;20069;-89
2023/09/03 00:31:25;;;;;;;;;;;;;;;16.95;84.08;99971.75;4968250;28;20057;-90
2023/09/03 00:33:51;;;;;;;12.60;9.23;;;;;;;16.87;83.28;99948.63;4963325;28;19950;-88
2023/09/03 00:36:17;;;;;;;14.47;10.23;;;;;;;16.93;83.64;99949.22;4987139;28;20162;-88
2023/09/03 00:38:43;;;;;;;14.47;9.33;;;;;;;16.85;82.69;99947.34;4967805;28;20035;-92
2023/09/03 00:41:09;;;;;;;16.02;8.77;;;;;;;16.85;82.95;99948.16;4973581;28;20042;-89
2023/09/03 00:43:34;;;;;;;16.70;9.40;;;;;;;16.90;82.91;99956.22;4947834;28;20047;-89
2023/09/03 00:46:05;;;;;;;20.83;8.98;;;;;;;16.65;82.77;99919.41;4951139;28;20058;-90
2023/09/03 00:48:32;;;;;;;14.68;8.60;;;;;;;16.74;82.21;99930.34;4971034;28;20447;-88
2023/09/03 00:51:02;;;;;;;12.65;9.48;;;;;;;16.88;82.45;99954.94;5001741;28;20042;-96
2023/09/03 00:53:31;;;;;;;17.10;9.02;;;;;;;17.00;82.64;99963.28;4983185;28;20042;-88
2023/09/03 00:55:57;;;;;;;16.50;9.52;;;;;;;16.89;82.59;99954.63;4982888;28;20106;-89
2023/09/03 00:58:25;;;;;;;14.68;9.43;;;;;;;16.84;82.99;99952.03;4986556;28;20555;-91
2023/09/03 01:00:51;;;;;;;15.95;10.70;;;;;;;16.80;82.71;99945.59;4984476;28;20046;-89
2023/09/03 01:03:18;;;;;;;17.83;9.88;;;;;;;16.63;83.27;99927.22;4990605;28;20045;-89
2023/09/03 01:05:44;;;;;;;15.95;8.80;;;;;;;16.65;83.11;99935.13;5001713;28;20042;-90
2023/09/03 01:08:11;;;;;;;16.03;9.10;;;;;;;16.73;82.98;99939.00;4981864;28;20081;-90
2023/09/03 01:10:39;;;;;;;18.73;9.15;;;;;;;16.89;83.26;99968.41;4961626;28;20046;-88
2023/09/03 01:13:14;;;;;;;18.40;9.18;;;;;;;16.88;83.57;99964.03;4938802;28;20031;-91
2023/09/03 01:15:45;;;;;;;14.32;9.07;;;;;;;16.58;83.49;99938.44;4967095;28;20070;-96
2023/09/03 01:18:19;;;;;;;12.93;9.00;;;;;;;16.55;83.66;99936.34;4988115;28;20089;-93
2023/09/03 01:21:16;;;;;;;15.73;9.57;;;;;;;16.66;83.91;99953.34;4947357;28;20039;-95
2023/09/03 01:24:12;;;;;;;15.05;9.98;;;;;;;16.79;84.25;99979.88;4979344;28;20031;-93
2023/09/03 01:27:26;;;;;;;16.08;10.75;;;;;;;16.80;84.00;99975.16;4973545;28;20062;-88
2023/09/03 01:29:52;;;;;;;15.82;10.68;;;;;;;16.61;84.54;99965.38;4974111;28;20038;-91
2023/09/03 01:32:20;;;;;;;;;;;;;;;16.62;84.83;99975.28;4997906;28;20510;-88
2023/09/03 01:34:48;;;;;;;15.10;10.38;;;;;;;16.57;85.00;99967.19;4980834;28;20013;-87
2023/09/03 01:37:15;;;;;;;18.63;11.57;;;;;;;16.58;85.11;99971.56;4959517;29;20095;-90
2023/09/03 01:39:41;;;;;;;26.40;12.00;;;;;;;16.37;85.31;99957.78;4975761;28;20102;-95
2023/09/03 01:42:07;;;;;;;18.20;10.93;;;;;;;16.26;85.57;99941.94;4943556;28;20097;-88
2023/09/03 01:44:33;;;;;;;16.27;11.65;;;;;;;16.19;85.98;99934.19;4976142;28;20145;-89
2023/09/03 01:47:18;;;;;;;16.27;11.07;;;;;;;16.39;86.14;99973.97;4943458;29;20050;-92
2023/09/03 01:50:11;;;;;;;16.85;11.20;;;;;;;16.32;85.85;99957.16;4936375;29;20089;-95
2023/09/03 01:52:49;;;;;;;18.05;11.20;;;;;;;16.20;85.98;99938.59;4964841;28;20046;-91
2023/09/03 01:55:18;;;;;;;21.67;10.85;;;;;;;16.17;85.73;99940.06;4927092;29;20453;-94
2023/09/03 01:57:53;;;;;;;20.92;11.35;;;;;;;16.28;85.89;99956.22;4946684;28;20039;-89
2023/09/03 02:00:20;;;;;;;18.52;11.63;;;;;;;16.26;85.93;99947.47;4932018;28;20034;-88
2023/09/03 02:02:48;;;;;;;24.95;12.55;;;;;;;16.16;86.05;99940.41;4965027;28;20046;-87
2023/09/03 02:05:14;;;;;;;19.63;10.73;;;;;;;16.27;85.93;99952.66;4945529;29;20071;-88
2023/09/03 02:07:41;;;;;;;17.20;10.77;;;;;;;16.35;85.89;99973.03;4942409;29;20043;-88
2023/09/03 02:10:08;;;;;;;20.25;10.95;;;;;;;16.33;85.38;99962.34;4945193;28;20504;-88
2023/09/03 02:12:35;;;;;;;17.40;10.75;;;;;;;16.23;85.10;99946.22;4967952;28;20039;-91
2023/09/03 02:15:02;;;;;;;18.25;11.80;;;;;;;16.45;85.27;99981.72;4963317;28;20106;-88
2023/09/03 02:17:30;;;;;;;17.85;10.68;;;;;;;16.34;85.39;99980.53;4964472;28;20100;-87
2023/09/03 02:19:58;;;;;;;15.02;10.38;;;;;;;16.27;85.27;99966.47;4963255;28;20069;-89
2023/09/03 02:22:44;;;;;;;16.70;10.60;;;;;;;16.17;85.29;99964.91;4950375;28;20043;-96
2023/09/03 02:25:10;;;;;;;17.38;10.35;;;;;;;16.07;85.12;99945.97;4979025;28;20042;-94
2023/09/03 02:27:36;;;;;;;17.48;11.27;;;;;;;16.33;85.19;99986.38;4927995;29;20452;-88
2023/09/03 02:30:04;;;;;;;16.65;11.55;;;;;;;16.16;85.32;99968.00;4956934;28;20508;-88
2023/09/03 02:32:30;;;;;;;19.58;11.55;;;;;;;16.32;85.71;99993.84;4945419;28;20098;-88
2023/09/03 02:34:56;;;;;;;16.02;11.10;;;;;;;16.13;85.93;99971.44;4961394;28;20079;-89
2023/09/03 02:37:23;;;;;;;;;;;;;;;16.29;86.04;99982.66;4934006;28;20049;-88
2023/09/03 02:39:48;;;;;;;18.90;12.13;;;;;;;16.11;85.95;99957.16;4961668;28;20390;-88
2023/09/03 02:42:14;;;;;;;19.55;12.00;;;;;;;16.02;86.19;99954.44;4974747;28;20074;-92
2023/09/03 02:44:40;;;;;;;16.30;11.10;;;;;;;16.11;86.38;99968.19;4979388;28;20042;-87
2023/09/03 02:47:06;;;;;;;18.05;11.05;;;;;;;16.29;86.05;99991.78;4974487;28;20043;-91
2023/09/03 02:49:32;;;;;;;15.48;11.73;;;;;;;16.25;86.19;99984.47;4979199;28;20515;-89
2023/09/03 02:51:58;;;;;;;14.80;11.03;;;;;;;16.25;86.00;99987.25;4977542;28;20035;-88
2023/09/03 02:54:24;;;;;;;15.57;11.60;;;;;;;16.08;86.00;99960.56;4977259;28;20053;-88
2023/09/03 02:56:50;;;;;;;13.60;10.63;;;;;;;16.02;86.05;99956.38;4984016;28;20050;-92
2023/09/03 02:59:17;;;;;;;20.45;11.63;;;;;;;16.14;86.35;99973.03;4961536;28;20038;-89
2023/09/03 03:01:43;;;;;;;17.45;11.20;;;;;;;16.13;86.35;99975.00;4978840;28;20042;-93
2023/09/03 03:04:09;;;;;;;24.93;12.80;;;;;;;16.08;86.20;99969.66;4965846;28;20065;-89
2023/09/03 03:06:35;;;;;;;22.48;11.30;;;;;;;16.05;86.09;99964.81;4971861;28;20042;-88
2023/09/03 03:09:04;;;;;;;23.88;11.77;;;;;;;16.26;86.18;100002.63;4980721;28;20289;-90
2023/09/03 03:11:31;;;;;;;19.95;11.90;;;;;;;16.12;85.83;99989.09;4982999;28;20638;-91
2023/09/03 03:14:00;;;;;;;21.13;12.15;;;;;;;16.17;85.96;99980.66;4961896;28;20397;-88
2023/09/03 03:16:30;;;;;;;20.65;11.98;;;;;;;16.13;85.59;99993.50;4981306;28;20529;-89
2023/09/03 03:18:57;;;;;;;19.48;11.75;;;;;;;16.09;85.56;99990.59;4965104;28;20515;-87
2023/09/03 03:21:28;;;;;;;18.15;12.38;;;;;;;16.09;85.63;99998.88;4985528;28;20034;-87
2023/09/03 03:23:58;;;;;;;18.48;12.10;;;;;;;16.10;85.62;99986.69;4937315;29;20056;-89
2023/09/03 03:26:35;;;;;;;18.35;12.50;;;;;;;15.94;85.50;99960.81;4908918;29;20071;-88
2023/09/03 03:29:04;;;;;;;21.15;12.27;;;;;;;16.24;85.35;100015.97;4937340;29;20066;-90
2023/09/03 03:31:35;;;;;;;21.77;11.98;;;;;;;15.89;85.23;99966.50;4920100;29;20096;-88
2023/09/03 03:34:01;;;;;;;18.42;11.52;;;;;;;16.08;85.63;100002.75;4907673;29;20132;-88
2023/09/03 03:36:29;;;;;;;17.00;12.15;;;;;;;16.16;85.77;100010.19;4920198;29;20047;-88
2023/09/03 03:38:56;;;;;;;;;;;;;;;16.19;85.65;100011.44;4914515;29;20029;-90
2023/09/03 03:41:24;;;;;;;18.80;12.18;;;;;;;16.15;85.53;100003.03;4914231;29;19922;-89
2023/09/03 03:43:57;;;;;;;20.73;12.68;;;;;;;16.09;85.25;99992.53;4918677;29;20099;-87
2023/09/03 03:46:27;;;;;;;21.08;13.15;;;;;;;16.19;85.62;100003.16;4875311;29;20112;-88
2023/09/03 03:48:57;;;;;;;18.50;12.10;;;;;;;16.25;85.26;100012.88;4896559;29;20121;-94
2023/09/03 03:51:24;;;;;;;17.77;12.80;;;;;;;16.29;84.96;100021.28;4903966;29;20040;-87
2023/09/03 03:53:51;;;;;;;21.90;12.40;;;;;;;16.20;85.68;100002.84;4899277;29;20064;-87
2023/09/03 03:56:20;;;;;;;19.52;13.18;;;;;;;16.33;85.18;100020.31;4896436;29;20060;-86
2023/09/03 03:58:47;;;;;;;24.85;13.15;;;;;;;16.24;85.22;99996.66;4906466;29;20035;-88
2023/09/03 04:01:26;;;;;;;20.75;13.60;;;;;;;16.38;84.73;100016.53;4905801;29;20055;-88
2023/09/03 04:03:54;;;;;;;18.83;12.77;;;;;;;16.23;84.80;100000.56;4932835;29;20073;-89
2023/09/03 04:06:20;;;;;;;22.95;14.52;;;;;;;16.23;84.31;100000.56;4922497;29;20047;-88
2023/09/03 04:08:46;;;;;;;22.52;13.23;;;;;;;16.28;84.45;99997.59;4927557;29;20044;-89
2023/09/03 04:11:19;;;;;;;26.98;13.32;;;;;;;16.50;83.69;100010.28;4944322;29;20075;-89
2023/09/03 04:13:47;;;;;;;26.88;13.77;;;;;;;16.52;83.32;100008.78;4933493;29;20044;-90
2023/09/03 04:16:31;;;;;;;23.73;12.73;;;;;;;16.70;82.42;100015.00;4954124;29;20016;-88
2023/09/03 04:18:59;;;;;;;;;;;;;;;16.77;82.06;100017.25;4885868;29;20048;-86
2023/09/03 04:21:27;;;;;;;24.23;12.23;;;;;;;16.79;82.09;100017.75;4908287;29;19903;-88
2023/09/03 04:23:57;;;;;;;22.50;11.77;;;;;;;16.61;82.25;99981.94;4924287;29;20714;-89
2023/09/03 04:26:28;;;;;;;19.37;12.00;;;;;;;16.91;82.00;100026.06;4920481;29;20024;-89
2023/09/03 04:29:06;;;;;;;17.48;11.65;;;;;;;17.00;81.05;100021.28;4937704;29;20581;-89
2023/09/03 04:31:35;;;;;;;18.70;10.75;;;;;;;16.87;81.30;99983.72;4881306;29;20054;-89
2023/09/03 04:34:09;;;;;;;24.67;11.55;;;;;;;17.03;80.79;100006.00;4870275;29;20037;-91
2023/09/03 04:36:41;;;;;;;20.65;11.05;;;;;;;16.96;80.46;99978.13;4873229;29;20166;-89
2023/09/03 04:39:31;;;;;;;18.65;11.55;;;;;;;17.22;80.49;100014.59;4881343;29;20100;-90
2023/09/03 04:41:57;;;;;;;17.70;9.93;;;;;;;17.23;79.72;100007.09;4874945;29;20045;-90
2023/09/03 04:44:26;;;;;;;15.68;10.77;;;;;;;17.18;79.73;99987.97;4859115;29;20052;-89
2023/09/03 04:47:17;;;;;;;19.95;10.15;;;;;;;17.31;79.47;100004.22;4878110;29;20530;-89
2023/09/03 04:49:57;;;;;;;14.60;9.77;;;;;;;17.37;78.87;100011.16;4898373;29;20029;-88
2023/09/03 04:52:24;;;;;;;18.73;9.75;;;;;;;17.41;79.16;100014.03;4896033;29;20060;-89
2023/09/03 04:54:50;;;;;;;19.48;10.10;;;;;;;17.31;78.77;99998.69;4892182;29;20021;-90
2023/09/03 04:57:16;;;;;;;18.60;10.40;;;;;;;17.31;79.41;100006.19;4897604;29;20043;-89
2023/09/03 04:59:53;;;;;;;15.65;10.07;;;;;;;17.02;79.04;99972.03;4890463;29;20057;-90
2023/09/03 05:02:22;;;;;;;15.25;9.45;;;;;;;17.30;78.44;100010.09;4877261;29;20048;-89
2023/09/03 05:04:53;;;;;;;13.02;9.40;;;;;;;17.20;78.94;100005.00;4889350;29;20049;-89
2023/09/03 05:07:24;;;;;;;15.40;9.80;;;;;;;16.93;78.74;99962.22;4883569;29;20078;-88
2023/09/03 05:09:55;;;;;;;22.38;10.55;;;;;;;17.21;79.20;100009.38;4952906;28;20038;-90
2023/09/03 05:12:24;;;;;;;14.95;10.02;;;;;;;16.96;79.24;99964.31;4948714;29;20035;-89
2023/09/03 05:15:14;;;;;;;17.38;9.93;;;;;;;16.87;79.53;99954.13;4969368;28;20018;-88
2023/09/03 05:17:52;;;;;;;15.38;9.98;;;;;;;16.89;79.41;99962.91;4932340;29;20055;-95
2023/09/03 05:20:58;;;;;;;18.80;10.63;;;;;;;17.25;79.72;100019.44;4909282;29;20066;-93
2023/09/03 05:23:46;;;;;;;15.50;10.25;;;;;;;17.19;80.16;100009.75;4935714;29;20063;-89
2023/09/03 05:26:37;;;;;;;17.30;10.40;;;;;;;17.37;80.27;100024.16;4897325;29;20025;-88
2023/09/03 05:30:12;;;;;;;27.05;10.57;;;;;;;17.18;81.38;99968.63;4878836;29;20057;-90
2023/09/03 05:32:43;;;;;;;19.00;10.32;;;;;;;17.34;80.29;99988.91;4877312;29;20037;-92
2023/09/03 05:35:12;;;;;;;14.57;10.10;;;;;;;17.33;80.42;100001.94;4890119;29;20088;-95
2023/09/03 05:37:38;;;;;;;18.08;10.77;;;;;;;17.30;79.49;99985.22;4891060;29;20061;-90
2023/09/03 05:40:07;;;;;;;28.33;10.70;;;;;;;17.21;79.86;99971.50;4888614;29;20049;-87
2023/09/03 05:42:33;;;;;;;17.38;10.38;;;;;;;17.38;79.98;99998.13;4850691;29;20089;-89
2023/09/03 05:44:59;;;;;;;20.63;10.63;;;;;;;17.41;78.96;99988.38;4866099;29;20058;-90
2023/09/03 05:47:25;;;;;;;19.50;9.48;;;;;;;17.56;78.82;100016.16;4850290;29;20061;-91
2023/09/03 05:49:56;;;;;;;16.70;9.75;;;;;;;17.55;77.99;100003.50;4900755;29;20054;-91
2023/09/03 05:52:24;;;;;;;16.10;9.63;;;;;;;17.59;77.77;100018.25;4910349;29;20137;-93
2023/09/03 05:54:52;;;;;;;13.40;8.20;;;;;;;17.63;77.25;100023.88;4909235;29;20056;-90
2023/09/03 05:57:18;;;;;;;;;;;;;;;17.74;76.68;100014.00;4931105;29;21578;-89
2023/09/03 05:59:51;;;;;;;;;;;;;;;17.83;75.14;100017.50;4923739;29;19929;-88
2023/09/03 06:02:18;;;;;;;14.25;9.45;;;;;;;17.88;74.97;100004.56;4928949;29;20426;-90
2023/09/03 06:04:50;;;;;;;17.23;10.20;;;;;;;18.21;74.43;100021.06;4965081;29;20047;-90
2023/09/03 06:07:15;;;;;;;25.73;12.85;;;;;;;18.18;74.23;99989.38;4956655;29;20035;-89
2023/09/03 06:09:42;;;;;;;20.10;12.25;;;;;;;18.53;73.27;100005.44;4953781;29;20602;-91
2023/09/03 06:12:08;;;;;;;26.80;14.77;;;;;;;18.41;73.77;99962.00;4954062;29;20044;-92
2023/09/03 06:14:35;;;;;;;26.67;15.73;;;;;;;18.67;72.77;99972.63;4954221;29;20188;-92
2023/09/03 06:17:04;;;;;;;29.00;17.60;;;;;;;18.75;72.32;99979.22;4919998;29;20425;-90
2023/09/03 06:19:32;;;;;;;27.38;11.68;;;;;;;18.75;71.07;99962.63;4951183;28;20124;-91
2023/09/03 06:22:01;;;;;;;23.88;11.70;;;;;;;19.05;70.73;99989.97;4922855;28;20053;-89
2023/09/03 06:24:27;;;;;;;26.63;11.95;;;;;;;19.01;69.72;99984.34;4946024;28;20039;-92
2023/09/03 06:26:53;;;;;;;16.87;11.30;;;;;;;19.13;69.54;100000.88;4957038;28;20046;-87
2023/09/03 06:29:19;;;;;;;23.57;9.67;;;;;;;19.26;68.55;100007.16;4985414;28;20031;-92
2023/09/03 06:31:44;;;;;;;10.37;6.37;;;;;;;19.18;66.86;100003.41;4951783;28;20047;-88
2023/09/03 06:34:10;;;;;;;18.70;7.23;;;;;;;19.05;66.61;99976.13;4984897;28;20083;-87
2023/09/03 06:36:36;;;;;;;11.73;6.63;;;;;;;19.20;66.44;99995.56;4959809;28;20052;-87
2023/09/03 06:39:03;;;;;;;15.03;5.53;;;;;;;18.98;65.08;99977.53;4942443;28;20070;-89
2023/09/03 06:41:28;;;;;;;9.23;6.70;;;;;;;19.05;65.82;99970.56;4984300;28;20117;-88
2023/09/03 06:43:55;;;;;;;14.97;6.20;;;;;;;19.42;65.61;100013.56;4977423;28;20089;-91
2023/09/03 06:46:21;;;;;;;;;;;;;;;19.54;65.73;100012.69;4959620;28;20039;-90
2023/09/03 06:48:47;;;;;;;11.75;5.95;;;;;;;19.49;65.95;99996.31;4963652;28;20008;-88
2023/09/03 06:51:13;;;;;;;14.47;6.23;;;;;;;19.57;64.86;99995.34;4971615;28;20090;-95
2023/09/03 06:53:39;;;;;;;7.57;5.68;;;;;;;19.48;64.45;99973.31;4941931;28;20034;-89
2023/09/03 06:56:05;;;;;;;12.27;5.70;;;;;;;19.53;64.48;99966.69;4959247;28;20123;-86
2023/09/03 06:58:31;;;;;;;15.80;6.00;;;;;;;19.75;63.19;99986.69;4956776;28;20039;-87
2023/09/03 07:00:56;;;;;;;19.57;5.97;;;;;;;19.78;64.10;99972.09;4953670;28;20546;-91
2023/09/03 07:03:22;;;;;;;11.27;5.17;;;;;;;19.95;61.93;99999.47;4952333;28;20041;-90
2023/09/03 07:05:48;;;;;;;8.52;5.28;;;;;;;20.13;63.11;100011.00;4975818;28;20927;-91
2023/09/03 07:08:15;;;;;;;;;;;;;;;20.27;62.43;100013.31;4959134;28;20189;-85
2023/09/03 07:10:41;;;;;;;11.93;4.63;;;;;;;20.08;59.36;100000.19;4954301;28;20656;-93
2023/09/03 07:13:08;;;;;;;10.27;5.03;;;;;;;20.10;59.89;100014.50;4972871;28;20038;-88
2023/09/03 07:15:36;;;;;;;14.23;4.97;;;;;;;19.99;60.15;99986.47;4932225;28;20043;-94
2023/09/03 07:18:03;;;;;;;13.13;4.70;;;;;;;20.08;59.58;100000.19;4967884;28;20035;-89
2023/09/03 07:20:29;;;;;;;8.55;4.35;;;;;;;20.35;60.75;100021.44;4957891;28;20031;-90
2023/09/03 07:22:55;;;;;;;15.20;6.00;;;;;;;20.26;62.22;99983.94;4950412;28;20039;-86
2023/09/03 07:25:22;;;;;;;16.67;5.47;;;;;;;20.43;60.40;100002.97;4968743;28;20124;-92
2023/09/03 07:27:50;;;;;;;9.32;4.60;;;;;;;20.18;58.85;99997.66;4960813;28;20038;-84
2023/09/03 07:30:16;;;;;;;12.60;5.13;;;;;;;20.25;60.98;99985.91;4975105;28;20041;-92
2023/09/03 07:32:42;;;;;;;12.67;5.57;;;;;;;20.44;60.09;100001.00;4969399;28;20286;-92
2023/09/03 07:35:09;;;;;;;12.07;5.78;;;;;;;20.52;60.75;100000.00;4972315;28;20050;-92
2023/09/03 07:37:35;;;;;;;8.23;5.60;;;;;;;20.30;58.81;99970.94;4984549;28;20046;-87
2023/09/03 07:40:03;;;;;;;11.80;5.50;;;;;;;20.74;60.41;100012.41;4972856;28;20038;-86
2023/09/03 07:42:30;;;;;;;9.77;5.45;;;;;;;20.36;59.88;99961.97;4945207;28;20061;-93
2023/09/03 07:44:56;;;;;;;12.70;5.90;;;;;;;20.67;59.19;100015.84;4990732;28;20511;-93
2023/09/03 07:47:23;;;;;;;9.50;5.30;;;;;;;20.64;59.98;99991.56;4993452;28;20030;-89
2023/09/03 07:49:49;;;;;;;15.43;5.97;;;;;;;20.87;58.77;99998.00;4960275;28;20041;-93
2023/09/03 07:52:16;;;;;;;13.93;6.00;;;;;;;21.02;57.72;100020.50;4993367;28;20121;-91
2023/09/03 07:54:43;;;;;;;25.65;6.82;;;;;;;21.07;58.35;100009.13;4993180;28;20042;-89
2023/09/03 07:57:10;;;;;;;15.25;6.63;;;;;;;21.13;57.43;100018.78;4995809;28;20038;-85
2023/09/03 07:59:39;;;;;;;9.48;5.60;;;;;;;21.13;58.64;100010.44;4961144;28;20077;-95
2023/09/03 08:02:06;;;;;;;15.43;6.45;;;;;;;21.21;59.48;100019.72;4979105;28;20110;-86
2023/09/03 08:04:36;;;;;;;21.42;7.00;;;;;;;21.04;57.95;100001.50;4996592;28;20038;-87
2023/09/03 08:07:03;;;;;;;19.33;6.97;;;;;;;21.16;57.88;100017.22;4939866;28;20046;-87
2023/09/03 08:09:30;;;;;;;12.57;7.22;;;;;;;20.92;57.43;100008.00;4993462;28;20138;-96
2023/09/03 08:11:56;;;;;;;26.35;11.07;;;;;;;20.84;58.04;100004.28;4924751;29;20130;-91
2023/09/03 08:14:24;;;;;;;29.08;10.07;;;;;;;20.78;58.22;99986.28;4925607;29;20048;-87
2023/09/03 08:16:50;;;;;;;14.40;7.40;;;;;;;21.04;59.23;100002.31;4907944;29;20069;-88
2023/09/03 08:19:17;;;;;;;20.70;6.23;;;;;;;21.44;59.51;100028.13;4897723;29;20568;-87
2023/09/03 08:21:44;;;;;;;14.60;6.10;;;;;;;21.46;60.10;100007.13;4908008;29;20047;-87
2023/09/03 08:24:12;;;;;;;21.23;6.00;;;;;;;21.56;59.63;99995.38;4919765;29;20083;-88
2023/09/03 08:26:41;;;;;;;13.18;6.10;;;;;;;21.67;56.03;100015.03;4883390;29;20082;-86
2023/09/03 08:29:08;;;;;;;8.32;5.13;;;;;;;21.74;57.47;100017.94;4896371;29;20086;-92
2023/09/03 08:31:35;;;;;;;14.80;5.95;;;;;;;21.92;57.65;100034.13;4909756;29;20044;-88
2023/09/03 08:34:01;;;;;;;13.40;5.90;;;;;;;21.72;56.39;100014.75;4919579;29;20059;-88
2023/09/03 08:36:29;;;;;;;19.07;6.60;;;;;;;21.45;55.90;99999.94;4882650;29;20048;-95
2023/09/03 08:38:58;;;;;;;15.63;6.47;;;;;;;21.25;56.78;99973.31;4872378;29;20292;-95
2023/09/03 08:41:28;;;;;;;10.73;5.70;;;;;;;21.61;56.26;100019.28;4883582;29;20064;-94
2023/09/03 08:50:38;;;;;;;12.48;6.07;;;;;;;21.45;56.97;99969.31;5006290;28;20432;-93
2023/09/03 08:53:07;;;;;;;20.08;6.13;;;;;;;21.97;57.20;100025.47;4945690;28;20037;-92
2023/09/03 08:55:34;;;;;;;25.13;7.03;;;;;;;22.25;55.00;100047.41;4962861;28;20070;-93
2023/09/03 08:58:00;;;;;;;12.35;6.18;;;;;;;21.80;52.18;99968.34;4986146;28;20042;-95
2023/09/03 09:00:26;;;;;;;13.02;6.10;;;;;;;22.00;52.98;99964.28;4949020;28;20207;-94
2023/09/03 09:03:04;;;;;;;10.15;5.43;;;;;;;22.53;52.63;100016.41;4956504;28;20546;-96
2023/09/03 09:05:33;;;;;;;13.57;5.35;;;;;;;22.23;51.61;99975.41;4941084;28;20053;-95
2023/09/03 09:08:09;;;;;;;14.18;5.72;;;;;;;21.88;51.60;99966.47;4932209;28;20039;-96
2023/09/03 09:10:48;;;;;;;14.23;6.05;;;;;;;21.79;52.19;99987.03;4942673;28;20047;-94
2023/09/03 09:13:21;;;;;;;24.38;7.60;;;;;;;21.97;52.86;100011.56;4930252;29;20051;-90
2023/09/03 09:15:47;;;;;;;21.00;7.55;;;;;;;21.92;53.24;100012.69;4933144;28;20102;-90
2023/09/03 09:18:25;;;;;;;13.77;6.43;;;;;;;21.54;51.22;99966.31;4926158;29;20052;-91
2023/09/03 09:21:00;;;;;;;14.00;5.47;;;;;;;21.54;51.46;99997.72;4955281;28;20048;-91
2023/09/03 09:23:30;;;;;;;13.55;5.90;;;;;;;21.34;50.30;99977.47;4964936;28;20043;-92
2023/09/03 09:25:59;;;;;;;15.25;5.32;;;;;;;21.49;51.76;99977.72;4935301;28;20047;-90
2023/09/03 09:28:26;;;;;;;15.57;5.65;;;;;;;21.48;52.98;99957.47;4933404;29;20074;-94
2023/09/03 09:30:57;;;;;;;17.95;5.70;;;;;;;21.77;51.31;99996.91;4940173;28;20110;-93
2023/09/03 09:33:26;;;;;;;26.60;5.80;;;;;;;22.06;49.99;100020.47;4931385;29;20063;-93
2023/09/03 09:36:10;;;;;;;15.73;5.45;;;;;;;22.13;49.37;100014.19;4948987;28;20039;-93
2023/09/03 09:38:38;;;;;;;17.85;6.45;;;;;;;22.15;49.80;100021.03;4954027;28;20050;-94
2023/09/03 09:41:24;;;;;;;10.90;5.85;;;;;;;21.69;49.34;99973.72;4981726;28;20034;-91
2023/09/03 09:43:51;;;;;;;10.45;5.35;;;;;;;22.10;47.74;100051.94;4995043;28;20081;-93
2023/09/03 09:46:31;;;;;;;18.63;5.57;;;;;;;21.84;48.17;100018.50;4974679;28;20040;-91
2023/09/03 09:49:01;;;;;;;15.52;5.53;;;;;;;22.04;50.36;100048.66;4974254;28;20062;-94
2023/09/03 09:51:29;;;;;;;14.52;4.50;;;;;;;21.65;48.12;99981.19;4978303;28;20042;-90
2023/09/03 09:53:57;;;;;;;9.98;4.15;;;;;;;22.07;49.45;100018.47;4961399;28;20034;-91
2023/09/03 09:56:36;;;;;;;12.90;4.20;;;;;;;22.00;45.67;100010.81;4984645;28;20038;-93
2023/09/03 09:59:09;;;;;;;19.73;5.40;;;;;;;22.16;46.17;100031.00;4978713;28;20046;-89
2023/09/03 10:01:44;;;;;;;8.57;4.75;;;;;;;21.94;50.73;99995.59;4985636;28;20041;-91
2023/09/03 10:04:13;;;;;;;16.23;4.00;;;;;;;21.89;47.33;99951.38;4989342;28;20092;-90
2023/09/03 10:06:40;;;;;;;14.75;4.60;;;;;;;22.33;50.39;99992.66;5017046;28;20101;-91
2023/09/03 10:09:12;;;;;;;10.07;4.18;;;;;;;22.09;45.41;99949.31;5012567;28;20152;-90
2023/09/03 10:11:39;;;;;;;14.20;4.60;;;;;;;22.51;46.38;99988.09;4999870;28;20074;-93
2023/09/03 10:14:05;;;;;;;11.20;4.47;;;;;;;22.54;46.24;100009.66;4965495;28;20038;-89
2023/09/03 10:16:33;;;;;;;26.02;5.50;;;;;;;22.58;49.44;100002.13;4978502;28;20049;-91
2023/09/03 10:19:06;;;;;;;11.95;5.28;;;;;;;22.46;45.73;99963.38;4978042;28;20524;-93
2023/09/03 10:21:35;;;;;;;9.07;4.80;;;;;;;22.66;44.42;100006.63;5010146;28;20140;-91
2023/09/03 10:24:05;;;;;;;7.75;4.32;;;;;;;22.53;44.09;99985.75;4994581;28;20030;-91
2023/09/03 10:26:45;;;;;;;7.00;4.53;;;;;;;22.55;44.15;99977.84;4983977;28;20430;-87
2023/09/03 10:29:20;;;;;;;13.77;5.10;;;;;;;22.49;43.87;99979.34;4969706;28;20052;-86
2023/09/03 10:31:48;;;;;;;7.90;4.60;;;;;;;22.42;44.26;99968.91;4998188;28;20101;-85
2023/09/03 10:34:17;;;;;;;11.43;4.97;;;;;;;22.58;44.59;100009.69;5006989;28;20037;-90
2023/09/03 10:37:05;;;;;;;8.63;4.80;;;;;;;22.55;44.11;100004.88;4991376;28;20487;-85
2023/09/03 10:39:31;;;;;;;24.48;4.75;;;;;;;22.54;44.50;100004.06;4973514;28;20041;-85
2023/09/03 10:42:23;;;;;;;8.25;4.40;;;;;;;22.68;45.01;100018.22;5002048;28;20069;-84
2023/09/03 10:44:51;;;;;;;15.88;5.00;;;;;;;22.55;43.80;100021.59;4986556;28;20135;-86
2023/09/03 10:47:18;;;;;;;12.85;4.45;;;;;;;22.56;45.92;100021.22;4955515;28;20065;-85
2023/09/03 10:49:46;;;;;;;11.27;4.72;;;;;;;22.55;44.40;100025.22;5006712;28;20082;-85
2023/09/03 10:53:00;;;;;;;12.73;4.93;;;;;;;22.58;44.93;100030.00;5010496;28;20065;-83
2023/09/03 10:55:21;;;;;;;26.88;5.18;;;;;;;22.73;45.34;100031.00;4982196;28;20396;-84
2023/09/03 10:58:16;;;;;;;10.02;4.65;;;;;;;22.70;46.33;100007.47;4961061;28;20061;-84
2023/09/03 11:01:20;;;;;;;15.25;5.05;;;;;;;23.09;46.44;100020.34;4980069;28;20046;-86
2023/09/03 11:03:48;;;;;;;;;;;;;;;23.23;44.13;100025.28;4981888;28;20562;-85
2023/09/03 11:06:17;;;;;;;15.65;5.28;;;;;;;23.20;42.85;100016.47;4969390;28;20394;-85
2023/09/03 11:08:43;;;;;;;13.75;5.20;;;;;;;22.92;43.51;100010.56;4979321;28;20038;-90
2023/09/03 11:11:10;;;;;;;7.00;5.03;;;;;;;22.86;44.72;99992.56;4966535;28;20038;-88
2023/09/03 11:13:37;;;;;;;11.00;5.00;;;;;;;22.96;43.48;100000.28;4999353;28;20042;-94
2023/09/03 11:16:03;;;;;;;7.90;4.80;;;;;;;22.98;44.48;99962.47;4956984;28;20263;-83
2023/09/03 11:18:30;;;;;;;14.77;4.80;;;;;;;23.48;43.94;100018.00;4983794;28;20046;-89
2023/09/03 11:20:57;;;;;;;8.38;4.45;;;;;;;23.43;42.52;99996.00;4988688;28;20034;-86
2023/09/03 11:23:23;;;;;;;17.00;5.03;;;;;;;23.45;43.59;99999.22;5002435;28;20069;-90
2023/09/03 11:25:50;;;;;;;7.30;4.60;;;;;;;23.47;42.46;100015.56;5001462;28;20033;-84
2023/09/03 11:28:16;;;;;;;;;;;;;;;23.36;44.49;100016.25;4986450;28;20081;-85
2023/09/03 11:30:43;;;;;;;11.10;4.32;;;;;;;23.38;45.70;100013.91;4983322;28;19926;-85
2023/09/03 11:33:26;;;;;;;8.40;4.47;;;;;;;23.45;46.61;100002.81;4985672;28;20038;-86
2023/09/03 11:35:55;;;;;;;14.43;3.92;;;;;;;23.94;46.65;100017.66;4955855;28;20037;-86
2023/09/03 11:38:29;;;;;;;13.00;4.60;;;;;;;24.02;44.91;100013.72;5003502;28;20034;-87
2023/09/03 11:40:57;;;;;;;10.70;4.13;;;;;;;24.05;43.58;100018.53;4939313;29;20047;-86
2023/09/03 11:43:24;;;;;;;26.23;5.18;;;;;;;23.97;44.57;100021.63;4929138;29;20043;-92